createdAt,value
2023-03-17T00:01:48.158Z,3.10
2023-03-17T00:04:15.968Z,3.20
2023-03-17T00:06:43.961Z,3.10
2023-03-17T00:09:14.683Z,3.10
2023-03-17T00:11:42.598Z,3.10
2023-03-17T00:14:11.964Z,3.10
2023-03-17T00:16:42.906Z,3.10
2023-03-17T00:19:16.458Z,3.10
2023-03-17T00:21:45.115Z,3.10
2023-03-17T00:24:15.260Z,3.20
2023-03-17T00:26:43.330Z,3.10
2023-03-17T00:29:13.231Z,3.10
2023-03-17T00:31:41.023Z,2.90
2023-03-17T00:34:13.009Z,2.90
2023-03-17T00:36:48.188Z,2.90
2023-03-17T00:39:17.366Z,2.90
2023-03-17T00:44:14.472Z,2.80
2023-03-17T00:46:42.619Z,2.70
2023-03-17T00:51:44.683Z,2.60
2023-03-17T00:54:12.966Z,2.70
2023-03-17T00:56:42.249Z,2.70
2023-03-17T00:59:21.707Z,2.60
2023-03-17T01:01:50.042Z,2.70
2023-03-17T01:04:18.049Z,2.60
2023-03-17T01:06:46.236Z,2.60
2023-03-17T01:09:16.311Z,2.50
2023-03-17T01:11:44.183Z,2.60
2023-03-17T01:14:12.982Z,2.60
2023-03-17T01:16:42.371Z,2.60
2023-03-17T01:19:11.843Z,2.70
2023-03-17T01:21:39.681Z,2.60
2023-03-17T01:24:08.139Z,2.50
2023-03-17T01:26:36.108Z,2.50
2023-03-17T01:29:04.709Z,2.30
2023-03-17T01:31:32.658Z,2.20
2023-03-17T01:34:02.529Z,2.20
2023-03-17T01:36:30.481Z,2.30
2023-03-17T01:38:58.549Z,2.30
2023-03-17T01:41:26.303Z,2.30
2023-03-17T01:43:54.125Z,2.20
2023-03-17T01:46:27.245Z,2.20
2023-03-17T01:49:04.252Z,2.20
2023-03-17T01:51:37.665Z,2.20
2023-03-17T01:54:09.331Z,2.10
2023-03-17T01:56:38.622Z,2.20
2023-03-17T01:59:10.710Z,2.10
2023-03-17T02:01:42.053Z,2.00
2023-03-17T02:04:12.070Z,1.90
2023-03-17T02:06:55.021Z,2.00
2023-03-17T02:09:25.161Z,2.00
2023-03-17T02:11:54.365Z,2.00
2023-03-17T02:14:22.315Z,2.10
2023-03-17T02:16:50.289Z,2.20
2023-03-17T02:19:19.472Z,2.20
2023-03-17T02:21:51.288Z,2.20
2023-03-17T02:24:26.297Z,2.30
2023-03-17T02:26:56.364Z,2.30
2023-03-17T02:29:24.417Z,2.30
2023-03-17T02:31:52.235Z,2.30
2023-03-17T02:34:20.265Z,2.20
2023-03-17T02:36:49.498Z,2.30
2023-03-17T02:39:17.561Z,2.30
2023-03-17T02:41:45.882Z,2.40
2023-03-17T02:44:13.666Z,2.30
2023-03-17T02:46:41.440Z,2.30
2023-03-17T02:49:09.782Z,2.20
2023-03-17T02:51:37.706Z,2.20
2023-03-17T02:54:06.943Z,2.20
2023-03-17T02:56:34.795Z,2.30
2023-03-17T02:59:02.596Z,2.40
2023-03-17T03:01:30.834Z,2.40
2023-03-17T03:03:58.965Z,2.50
2023-03-17T03:06:27.039Z,2.50
2023-03-17T03:08:54.867Z,2.40
2023-03-17T03:11:24.694Z,2.30
2023-03-17T03:13:52.490Z,2.30
2023-03-17T03:16:20.790Z,2.30
2023-03-17T03:18:48.625Z,2.30
2023-03-17T03:21:16.431Z,2.40
2023-03-17T03:23:44.284Z,2.50
2023-03-17T03:26:12.133Z,2.50
2023-03-17T03:28:41.529Z,2.50
2023-03-17T03:31:09.615Z,2.40
2023-03-17T03:33:37.693Z,2.40
2023-03-17T03:36:06.465Z,2.50
2023-03-17T03:38:34.426Z,2.60
2023-03-17T03:41:02.293Z,2.50
2023-03-17T03:43:30.312Z,2.60
2023-03-17T03:45:59.424Z,2.60
2023-03-17T03:48:27.439Z,2.60
2023-03-17T03:50:57.956Z,2.60
2023-03-17T03:53:26.071Z,2.70
2023-03-17T03:55:54.140Z,2.60
2023-03-17T03:58:21.907Z,2.60
2023-03-17T04:00:49.708Z,2.70
2023-03-17T04:03:18.837Z,2.70
2023-03-17T04:05:46.652Z,2.80
2023-03-17T04:08:14.730Z,2.80
2023-03-17T04:10:42.967Z,2.90
2023-03-17T04:13:10.745Z,2.90
2023-03-17T04:15:38.530Z,2.90
2023-03-17T04:18:06.557Z,3.00
2023-03-17T04:20:36.097Z,3.00
2023-03-17T04:23:03.924Z,3.00
2023-03-17T04:25:32.414Z,3.10
2023-03-17T04:28:00.292Z,3.00
2023-03-17T04:30:28.375Z,2.90
2023-03-17T04:32:56.530Z,2.90
2023-03-17T04:35:24.410Z,3.00
2023-03-17T04:37:53.519Z,2.90
2023-03-17T04:40:21.542Z,3.00
2023-03-17T04:42:49.337Z,3.00
2023-03-17T04:45:17.189Z,2.90
2023-03-17T04:47:46.280Z,2.90
2023-03-17T04:50:14.899Z,3.00
2023-03-17T04:52:42.830Z,2.90
2023-03-17T04:55:12.847Z,2.80
2023-03-17T04:57:40.650Z,2.80
2023-03-17T05:00:10.328Z,2.80
2023-03-17T05:02:38.819Z,2.80
2023-03-17T05:05:07.375Z,2.80
2023-03-17T05:07:35.172Z,2.80
2023-03-17T05:10:03.049Z,2.70
2023-03-17T05:12:32.355Z,2.70
2023-03-17T05:15:00.580Z,2.70
2023-03-17T05:17:28.476Z,2.70
2023-03-17T05:19:56.339Z,2.70
2023-03-17T05:22:24.113Z,2.70
2023-03-17T05:24:51.962Z,2.60
2023-03-17T05:27:20.054Z,2.60
2023-03-17T05:29:49.685Z,2.60
2023-03-17T05:32:18.281Z,2.60
2023-03-17T05:34:46.255Z,2.60
2023-03-17T05:37:14.224Z,2.60
2023-03-17T05:39:42.179Z,2.50
2023-03-17T05:42:10.042Z,2.50
2023-03-17T05:44:37.943Z,2.60
2023-03-17T05:47:08.376Z,2.60
2023-03-17T05:49:36.816Z,2.60
2023-03-17T05:52:04.927Z,2.60
2023-03-17T05:54:32.835Z,2.70
2023-03-17T05:57:00.971Z,2.80
2023-03-17T05:59:28.968Z,2.90
2023-03-17T06:01:57.606Z,3.00
2023-03-17T06:04:27.001Z,3.10
2023-03-17T06:06:54.795Z,3.10
2023-03-17T06:09:22.831Z,3.20
2023-03-17T06:11:50.799Z,3.20
2023-03-17T06:14:19.442Z,3.40
2023-03-17T06:16:47.290Z,3.40
2023-03-17T06:19:15.063Z,3.60
2023-03-17T06:21:44.502Z,3.70
2023-03-17T06:24:12.528Z,3.70
2023-03-17T06:26:40.388Z,3.80
2023-03-17T06:29:09.771Z,3.80
2023-03-17T06:31:38.313Z,3.80
2023-03-17T06:34:06.654Z,3.90
2023-03-17T06:36:35.908Z,3.80
2023-03-17T06:39:06.141Z,3.80
2023-03-17T06:41:33.918Z,3.80
2023-03-17T06:44:02.817Z,3.90
2023-03-17T06:46:30.898Z,3.90
2023-03-17T06:49:00.119Z,3.90
2023-03-17T06:51:28.287Z,4.10
2023-03-17T06:53:56.119Z,4.10
2023-03-17T06:56:30.132Z,4.30
2023-03-17T06:58:58.677Z,4.30
2023-03-17T07:01:27.137Z,4.40
2023-03-17T07:03:55.365Z,4.40
2023-03-17T07:06:24.121Z,4.50
2023-03-17T07:08:52.243Z,4.60
2023-03-17T07:11:20.241Z,4.70
2023-03-17T07:13:49.641Z,4.70
2023-03-17T07:16:19.495Z,4.80
2023-03-17T07:18:47.345Z,4.90
2023-03-17T07:21:15.595Z,4.90
2023-03-17T07:23:43.567Z,5.00
2023-03-17T07:26:11.354Z,5.10
2023-03-17T07:28:40.263Z,5.10
2023-03-17T07:31:11.470Z,5.20
2023-03-17T07:33:39.572Z,5.40
2023-03-17T07:36:08.952Z,5.50
2023-03-17T07:38:37.128Z,5.70
2023-03-17T07:41:09.696Z,5.70
2023-03-17T07:43:38.526Z,5.80
2023-03-17T07:46:07.311Z,6.00
2023-03-17T07:48:40.701Z,6.00
2023-03-17T07:51:10.082Z,6.20
2023-03-17T07:53:37.856Z,6.30
2023-03-17T07:56:06.930Z,6.40
2023-03-17T07:58:34.744Z,6.60
2023-03-17T08:01:03.476Z,6.70
2023-03-17T08:03:31.781Z,6.80
2023-03-17T08:06:01.490Z,6.90
2023-03-17T08:08:29.652Z,7.00
2023-03-17T08:11:03.749Z,7.20
2023-03-17T08:13:31.742Z,7.20
2023-03-17T08:15:59.641Z,7.40
2023-03-17T08:18:28.059Z,7.50
2023-03-17T08:20:56.191Z,7.60
2023-03-17T08:23:26.456Z,7.70
2023-03-17T08:25:57.842Z,7.90
2023-03-17T08:28:25.904Z,7.90
2023-03-17T08:30:54.276Z,8.10
2023-03-17T08:33:22.501Z,8.30
2023-03-17T08:35:50.994Z,8.40
2023-03-17T08:38:18.821Z,8.50
2023-03-17T08:40:50.432Z,8.70
2023-03-17T08:43:18.629Z,8.60
2023-03-17T08:45:46.556Z,8.80
2023-03-17T08:48:15.162Z,8.90
2023-03-17T08:50:43.033Z,9.10
2023-03-17T08:53:10.874Z,9.10
2023-03-17T08:55:38.834Z,9.40
2023-03-17T08:58:09.277Z,9.50
2023-03-17T09:00:37.295Z,9.60
2023-03-17T09:03:05.848Z,9.70
2023-03-17T09:05:35.640Z,9.80
2023-03-17T09:08:05.606Z,9.80
2023-03-17T09:10:33.925Z,9.80
2023-03-17T09:13:03.943Z,9.90
2023-03-17T09:15:34.741Z,10.00
2023-03-17T09:18:03.153Z,10.20
2023-03-17T09:20:31.388Z,10.40
2023-03-17T09:22:59.854Z,10.40
2023-03-17T09:25:28.207Z,10.50
2023-03-17T09:27:56.609Z,10.50
2023-03-17T09:30:26.790Z,10.60
2023-03-17T09:32:56.140Z,10.70
2023-03-17T09:35:23.986Z,11.00
2023-03-17T09:37:51.765Z,11.00
2023-03-17T09:40:22.135Z,11.20
2023-03-17T09:42:59.124Z,11.30
2023-03-17T09:45:34.529Z,11.30
2023-03-17T09:48:18.228Z,11.30
2023-03-17T09:50:49.782Z,11.30
2023-03-17T09:53:20.750Z,11.40
2023-03-17T09:55:52.547Z,11.40
2023-03-17T09:58:26.994Z,11.50
2023-03-17T10:00:55.029Z,11.60
2023-03-17T10:03:25.656Z,11.60
2023-03-17T10:05:53.955Z,11.70
2023-03-17T10:08:31.587Z,11.90
2023-03-17T10:11:09.365Z,11.90
2023-03-17T10:13:50.574Z,11.90
2023-03-17T10:16:22.162Z,11.90
2023-03-17T10:18:56.859Z,12.10
2023-03-17T10:21:30.244Z,12.30
2023-03-17T10:23:59.233Z,12.30
2023-03-17T10:26:32.752Z,12.30
2023-03-17T10:29:04.055Z,12.40
2023-03-17T10:31:35.288Z,12.50
2023-03-17T10:34:15.742Z,12.50
2023-03-17T10:36:45.795Z,12.50
2023-03-17T10:39:15.940Z,12.50
2023-03-17T10:41:53.497Z,12.60
2023-03-17T10:44:35.614Z,12.70
2023-03-17T10:47:03.617Z,12.80
2023-03-17T10:49:37.653Z,13.00
2023-03-17T10:52:08.715Z,13.10
2023-03-17T10:54:38.393Z,13.30
2023-03-17T10:57:10.533Z,13.40
2023-03-17T10:59:45.043Z,13.50
2023-03-17T11:02:25.749Z,13.70
2023-03-17T11:05:01.700Z,13.80
2023-03-17T11:07:35.613Z,13.90
2023-03-17T11:10:06.453Z,14.20
2023-03-17T11:12:37.074Z,14.30
2023-03-17T11:15:07.282Z,14.40
2023-03-17T11:17:42.215Z,14.30
2023-03-17T11:20:34.927Z,14.40
2023-03-17T11:23:10.609Z,14.50
2023-03-17T11:25:43.263Z,14.60
2023-03-17T11:28:19.849Z,14.50
2023-03-17T11:30:57.189Z,14.70
2023-03-17T11:33:36.190Z,14.70
2023-03-17T11:36:15.620Z,14.50
2023-03-17T11:38:55.835Z,14.50
2023-03-17T11:41:44.847Z,14.60
2023-03-17T11:44:31.671Z,14.60
2023-03-17T11:47:08.999Z,14.60
2023-03-17T11:49:39.120Z,14.70
2023-03-17T11:52:14.017Z,14.90
2023-03-17T11:54:54.195Z,15.00
2023-03-17T11:57:27.077Z,15.20
2023-03-17T11:59:59.790Z,15.20
2023-03-17T12:02:33.042Z,15.40
2023-03-17T12:05:05.093Z,15.30
2023-03-17T12:07:37.402Z,15.40
2023-03-17T12:10:17.036Z,15.40
2023-03-17T12:12:50.932Z,15.50
2023-03-17T12:15:25.595Z,15.50
2023-03-17T12:17:58.607Z,15.60
2023-03-17T12:20:34.721Z,15.60
2023-03-17T12:23:12.058Z,15.50
2023-03-17T12:25:49.696Z,15.50
2023-03-17T12:28:22.907Z,15.50
2023-03-17T12:30:54.596Z,15.60
2023-03-17T12:33:29.434Z,15.70
2023-03-17T12:35:58.319Z,15.60
2023-03-17T12:38:35.550Z,15.70
2023-03-17T12:41:35.312Z,15.70
2023-03-17T12:44:08.035Z,15.90
2023-03-17T12:46:51.593Z,15.90
2023-03-17T12:49:57.932Z,16.00
2023-03-17T12:52:38.198Z,16.10
2023-03-17T12:55:14.397Z,16.10
2023-03-17T12:57:44.013Z,16.20
2023-03-17T13:00:24.448Z,16.10
2023-03-17T13:03:08.106Z,16.20
2023-03-17T13:05:37.261Z,16.20
2023-03-17T13:08:10.971Z,16.20
2023-03-17T13:10:42.645Z,16.20
2023-03-17T13:13:37.822Z,16.00
2023-03-17T13:16:23.378Z,16.10
2023-03-17T13:18:53.624Z,16.10
2023-03-17T13:21:26.192Z,16.00
2023-03-17T13:24:01.364Z,16.00
2023-03-17T13:27:00.705Z,16.00
2023-03-17T13:29:47.094Z,16.00
2023-03-17T13:32:35.373Z,16.00
2023-03-17T13:35:19.868Z,16.10
2023-03-17T13:38:02.906Z,16.20
2023-03-17T13:40:39.473Z,16.10
2023-03-17T13:43:28.876Z,16.10
2023-03-17T13:46:16.275Z,16.10
2023-03-17T13:48:44.277Z,16.20
2023-03-17T13:51:21.219Z,16.10
2023-03-17T13:53:53.849Z,16.10
2023-03-17T13:56:26.314Z,16.00
2023-03-17T13:59:06.118Z,16.10
2023-03-17T14:01:40.683Z,16.10
2023-03-17T14:04:18.444Z,16.00
2023-03-17T14:06:48.018Z,16.00
2023-03-17T14:09:32.395Z,16.00
2023-03-17T14:12:03.301Z,16.00
2023-03-17T14:14:41.945Z,16.10
2023-03-17T14:17:16.373Z,16.10
2023-03-17T14:20:04.276Z,16.10
2023-03-17T14:22:32.196Z,16.00
2023-03-17T14:25:03.732Z,16.00
2023-03-17T14:27:35.451Z,16.00
2023-03-17T14:30:16.688Z,16.00
2023-03-17T14:32:48.358Z,16.10
2023-03-17T14:35:16.389Z,15.90
2023-03-17T14:37:46.156Z,16.00
2023-03-17T14:40:23.036Z,15.90
2023-03-17T14:42:51.392Z,15.80
2023-03-17T14:45:29.087Z,15.80
2023-03-17T14:47:57.908Z,15.70
2023-03-17T14:50:28.629Z,15.70
2023-03-17T14:52:58.389Z,15.70
2023-03-17T14:55:35.425Z,15.70
2023-03-17T14:58:09.952Z,15.60
2023-03-17T15:00:44.828Z,15.70
2023-03-17T15:03:19.889Z,15.70
2023-03-17T15:05:49.048Z,15.60
2023-03-17T15:08:34.462Z,15.60
2023-03-17T15:11:05.585Z,15.70
2023-03-17T15:13:36.316Z,15.60
2023-03-17T15:16:15.909Z,15.60
2023-03-17T15:18:43.975Z,15.60
2023-03-17T15:21:25.033Z,15.70
2023-03-17T15:23:53.005Z,15.70
2023-03-17T15:26:30.478Z,15.70
2023-03-17T15:28:59.620Z,15.70
2023-03-17T15:31:30.526Z,15.80
2023-03-17T15:33:59.134Z,15.90
2023-03-17T15:36:32.703Z,16.00
2023-03-17T15:39:01.074Z,16.10
2023-03-17T15:41:28.978Z,16.80
2023-03-17T15:43:56.877Z,16.60
2023-03-17T15:46:27.411Z,16.30
2023-03-17T15:48:56.846Z,16.20
2023-03-17T15:51:24.747Z,16.30
2023-03-17T15:53:52.776Z,16.70
2023-03-17T15:56:22.422Z,17.20
2023-03-17T15:58:52.251Z,17.30
2023-03-17T16:01:21.591Z,17.50
2023-03-17T16:03:50.418Z,17.20
2023-03-17T16:06:21.463Z,16.60
2023-03-17T16:08:50.535Z,16.40
2023-03-17T16:11:20.396Z,16.00
2023-03-17T16:13:48.672Z,15.70
2023-03-17T16:16:22.539Z,15.40
2023-03-17T16:18:52.571Z,15.20
2023-03-17T16:21:22.773Z,15.00
2023-03-17T16:23:51.300Z,14.90
2023-03-17T16:26:19.347Z,14.80
2023-03-17T16:28:49.165Z,14.60
2023-03-17T16:31:24.551Z,14.50
2023-03-17T16:33:53.537Z,14.40
2023-03-17T16:36:24.485Z,14.20
2023-03-17T16:38:52.865Z,14.10
2023-03-17T16:41:23.601Z,14.00
2023-03-17T16:43:53.713Z,13.80
2023-03-17T16:46:22.573Z,13.70
2023-03-17T16:48:51.244Z,13.60
2023-03-17T16:51:19.578Z,13.50
2023-03-17T16:53:49.186Z,13.40
2023-03-17T16:56:19.570Z,13.30
2023-03-17T16:58:48.112Z,13.20
2023-03-17T17:01:19.519Z,13.20
2023-03-17T17:03:48.835Z,13.10
2023-03-17T17:06:16.890Z,13.00
2023-03-17T17:08:46.018Z,12.90
2023-03-17T17:11:16.712Z,12.80
2023-03-17T17:13:46.782Z,12.70
2023-03-17T17:16:22.193Z,12.60
2023-03-17T17:18:50.503Z,12.50
2023-03-17T17:21:18.314Z,12.40
2023-03-17T17:23:46.549Z,12.40
2023-03-17T17:26:16.313Z,12.30
2023-03-17T17:28:44.142Z,12.20
2023-03-17T17:31:12.015Z,12.20
2023-03-17T17:33:40.517Z,12.10
2023-03-17T17:36:15.048Z,12.10
2023-03-17T17:38:43.110Z,12.00
2023-03-17T17:41:12.278Z,12.00
2023-03-17T17:43:41.704Z,11.80
2023-03-17T17:46:12.527Z,11.70
2023-03-17T17:48:40.472Z,11.70
2023-03-17T17:51:08.607Z,11.60
2023-03-17T17:53:36.792Z,11.50
2023-03-17T17:56:05.589Z,11.40
2023-03-17T17:58:33.812Z,11.40
2023-03-17T18:01:05.324Z,11.30
2023-03-17T18:03:33.807Z,11.20
2023-03-17T18:06:01.990Z,11.10
2023-03-17T18:08:29.878Z,11.00
2023-03-17T18:10:57.798Z,10.90
2023-03-17T18:13:25.788Z,10.80
2023-03-17T18:15:53.590Z,10.70
2023-03-17T18:18:22.760Z,10.60
2023-03-17T18:20:50.848Z,10.50
2023-03-17T18:23:20.082Z,10.50
2023-03-17T18:25:48.121Z,10.40
2023-03-17T18:28:16.172Z,10.40
2023-03-17T18:30:45.469Z,10.30
2023-03-17T18:33:17.543Z,10.20
2023-03-17T18:35:52.000Z,10.10
2023-03-17T18:38:20.233Z,10.00
2023-03-17T18:40:48.090Z,10.00
2023-03-17T18:43:16.058Z,9.80
2023-03-17T18:45:44.537Z,9.60
2023-03-17T18:48:12.370Z,9.70
2023-03-17T18:50:40.296Z,9.70
2023-03-17T18:53:09.779Z,9.70
2023-03-17T18:55:37.601Z,9.50
2023-03-17T18:58:05.424Z,9.50
2023-03-17T19:00:33.734Z,9.40
2023-03-17T19:03:01.779Z,9.30
2023-03-17T19:05:29.729Z,9.30
2023-03-17T19:07:57.521Z,9.30
2023-03-17T19:10:26.966Z,9.20
2023-03-17T19:12:55.296Z,9.00
2023-03-17T19:15:23.097Z,9.10
2023-03-17T19:17:51.147Z,8.90
2023-03-17T19:20:19.686Z,8.90
2023-03-17T19:22:47.520Z,8.80
2023-03-17T19:25:16.434Z,8.70
2023-03-17T19:27:45.816Z,8.60
2023-03-17T19:30:14.602Z,8.70
2023-03-17T19:32:42.543Z,8.60
2023-03-17T19:35:11.539Z,8.50
2023-03-17T19:37:39.391Z,8.40
2023-03-17T19:40:09.663Z,8.40
2023-03-17T19:42:37.885Z,8.20
2023-03-17T19:45:08.394Z,8.10
2023-03-17T19:47:36.265Z,8.10
2023-03-17T19:50:04.357Z,8.10
2023-03-17T19:52:32.236Z,8.10
2023-03-17T19:55:00.127Z,8.00
2023-03-17T19:57:27.904Z,7.90
2023-03-17T19:59:56.182Z,7.80
2023-03-17T20:02:25.505Z,7.80
2023-03-17T20:04:53.424Z,7.80
2023-03-17T20:07:21.398Z,7.70
2023-03-17T20:09:49.301Z,7.70
2023-03-17T20:12:17.120Z,7.60
2023-03-17T20:14:44.953Z,7.50
2023-03-17T20:17:14.084Z,7.60
2023-03-17T20:19:43.269Z,7.60
2023-03-17T20:22:11.542Z,7.60
2023-03-17T20:24:39.340Z,7.60
2023-03-17T20:27:07.904Z,7.50
2023-03-17T20:29:36.380Z,7.50
2023-03-17T20:32:04.595Z,7.40
2023-03-17T20:34:34.442Z,7.40
2023-03-17T20:37:03.893Z,7.20
2023-03-17T20:39:32.469Z,7.30
2023-03-17T20:42:01.486Z,7.20
2023-03-17T20:44:29.277Z,7.20
2023-03-17T20:46:57.707Z,7.10
2023-03-17T20:49:25.556Z,7.20
2023-03-17T20:51:53.394Z,7.10
2023-03-17T20:54:23.152Z,7.00
2023-03-17T20:56:53.521Z,6.90
2023-03-17T20:59:21.297Z,6.90
2023-03-17T21:01:49.803Z,6.80
2023-03-17T21:04:20.620Z,6.70
2023-03-17T21:06:48.540Z,6.70
2023-03-17T21:09:16.336Z,6.70
2023-03-17T21:11:45.683Z,6.60
2023-03-17T21:14:14.508Z,6.60
2023-03-17T21:16:44.669Z,6.50
2023-03-17T21:19:14.537Z,6.60
2023-03-17T21:21:43.000Z,6.50
2023-03-17T21:24:24.698Z,6.60
2023-03-17T21:26:53.950Z,6.50
2023-03-17T21:29:22.680Z,6.50
2023-03-17T21:31:50.915Z,6.50
2023-03-17T21:34:18.787Z,6.40
2023-03-17T21:36:48.516Z,6.40
2023-03-17T21:39:16.670Z,6.50
2023-03-17T21:41:44.775Z,6.50
2023-03-17T21:44:15.801Z,6.60
2023-03-17T21:46:44.266Z,6.60
2023-03-17T21:49:13.100Z,6.60
2023-03-17T21:51:40.889Z,6.50
2023-03-17T21:54:08.858Z,6.50
2023-03-17T21:56:36.616Z,6.50
2023-03-17T21:59:05.668Z,6.30
2023-03-17T22:01:35.876Z,6.20
2023-03-17T22:04:03.684Z,6.30
2023-03-17T22:06:31.455Z,6.20
2023-03-17T22:08:59.846Z,6.20
2023-03-17T22:11:27.625Z,6.10
2023-03-17T22:13:55.745Z,6.10
2023-03-17T22:16:24.337Z,6.10
2023-03-17T22:18:53.628Z,6.10
2023-03-17T22:21:21.805Z,6.10
2023-03-17T22:23:50.093Z,6.10
2023-03-17T22:26:19.514Z,6.10
2023-03-17T22:28:49.280Z,6.10
2023-03-17T22:31:19.110Z,6.00
2023-03-17T22:33:48.761Z,6.00
2023-03-17T22:36:18.115Z,5.90
2023-03-17T22:38:46.097Z,6.00
2023-03-17T22:41:16.532Z,6.00
2023-03-17T22:43:44.582Z,6.00
2023-03-17T22:46:12.733Z,6.00
2023-03-17T22:48:41.113Z,5.90
2023-03-17T22:51:11.196Z,5.90
2023-03-17T22:53:41.331Z,5.90
2023-03-17T22:56:10.886Z,5.70
2023-03-17T22:58:39.252Z,5.70
2023-03-17T23:01:08.129Z,5.70
2023-03-17T23:03:36.332Z,5.70
2023-03-17T23:06:05.529Z,5.60
2023-03-17T23:08:36.300Z,5.70
2023-03-17T23:11:08.236Z,5.70
2023-03-17T23:13:36.356Z,5.70
2023-03-17T23:16:04.563Z,5.70
2023-03-17T23:18:32.379Z,5.70
2023-03-17T23:21:00.810Z,5.70
2023-03-17T23:23:28.685Z,5.60
2023-03-17T23:25:56.629Z,5.80
2023-03-17T23:28:26.110Z,5.90
2023-03-17T23:30:55.093Z,5.90
2023-03-17T23:33:25.348Z,5.90
2023-03-17T23:35:54.026Z,5.80
2023-03-17T23:38:21.937Z,5.90
2023-03-17T23:40:50.859Z,5.90
2023-03-17T23:43:19.446Z,5.80
2023-03-17T23:45:52.504Z,5.90
2023-03-17T23:48:23.145Z,5.80
2023-03-17T23:50:53.297Z,5.80
2023-03-17T23:53:21.209Z,5.70
2023-03-17T23:55:49.221Z,5.60
2023-03-17T23:58:17.169Z,5.60
